Capitol Logistics 13




RKSI
Incheon International Airport
Seoul, KR
PANC
Ted Stevens Anchorage International Airport
Anchorage, US

Activity Log

Date Flight Route Aircraft Duration
02/22/2020 CPX13 EGOBA1L EGOBA G597 KAE G597 LANAT Y51 KAGIS A590 SELDM A590 PORGE A590 HAMND NEELL6 B77L 7h 12m
12/29/2019 CPX13 EGOBA1L EGOBA G597 KAE G597 LANAT Y51 KAGIS A590 SELDM A590 PORGE A590 HAMND NEELL6 B744 7h 21m
12/09/2019 CPX13 EGOBA1L EGOBA G597 KAE G597 LANAT Y51 KAGIS A590 SELDM A590 PORGE A590 HAMND NEELL6 B77L 8h 00m
12/09/2019 CPX13 EGOBA1L EGOBA G597 KAE G597 LANAT Y51 KAGIS A590 SELDM A590 PORGE A590 HAMND NEELL6 B744 7h 37m
12/05/2019 CPX13 EGOBA1L EGOBA G597 KAE G597 LANAT Y51 KAGIS A590 SELDM A590 PORGE A590 HAMND NEELL6 B744 7h 16m
11/23/2019 CPX13 EGOBA1L EGOBA G597 KAE G597 LANAT Y51 KAGIS A590 SELDM A590 PORGE A590 HAMND NEELL6 B77L 7h 53m
11/21/2019 CPX13 EGOBA1L EGOBA G597 KAE G597 LANAT Y51 KAGIS A590 SELDM A590 PORGE A590 HAMND NEELL6 B744 7h 21m
11/08/2019 CPX13 EGOBA1L EGOBA G597 KAE G597 LANAT Y51 KAGIS A590 SELDM A590 PORGE A590 HAMND NEELL6 B744 7h 29m
10/08/2019 CPX13 EGOBA1L EGOBA G597 KAE G597 LANAT Y51 KAGIS A590 SELDM A590 PORGE A590 HAMND NEELL6 B744 7h 07m
07/28/2019 CPX13 EGOBA1L EGOBA G597 KAE G597 LANAT Y51 KAGIS A590 SELDM A590 PORGE A590 HAMND NEELL6 B744 7h 46m
05/27/2019 CPX13 EGOB1S EGOBA G597 KAE B467 TENAS L512 GTC R217 SDE Y512 OATIS OTR3 PUTER/N0510F320 A590 PASRO/N0505F330 A590 PINSO/N0504F340 A590 HAMND NEELL B744 7h 34m
03/19/2019 CPX13 EGOBA1L EGOBA G597 KAE G597 LANAT Y51 KAGIS A590 SELDM A590 PORGE A590 HAMND NEELL6 B744 7h 38m
02/23/2019 CPX13 SEL Y697 KAE Y437 TENAS L512 GTC Y512 OATIS OTR3 PUTER A590 POOFF A590 PTZGR A590 PUGGY A590 PORGE A590 HAMND NEELL6 MD11 7h 20m

Route Details

Aircraft Information
Primary: Boeing 747-400BCF
Backup: Not Available
Route Data
Distance: 3793nm
Duration: 7h 00m
Recm'd Route: EGOBA1L EGOBA Y697 LANAT Y51 SAMON Y142 GTC Y512 OATIS Y889 PUTER A590 POXED A590 PASRO A590 POWAL A590 PLADO A590 POETT A590 HAMND NEELL6
Origin Wx: RKSI 180230Z 29011KT 260V320 9999 FEW030 11/03 Q1018 NOSIG
Dest. Wx: PANC 180153Z 30003KT 10SM SCT200 12/M03 A3032 RMK AO2 SLP270 T01171033 VISNO N $
Notes: